Time;durP1;ratioP1;P1;durP2;ratioP2;P2;SDS_P1;SDS_P2;PMS_P1;PMS_P2;Temp;Humidity;BMP_temperature;BMP_pressure;BME280_temperature;BME280_humidity;BME280_pressure;Samples;Min_cycle;Max_cycle;Signal;HPM_P1;HPM_P2
2023/08/15 00:01:39;;;;;;;8.43;2.20;;;14.60;99.90;;;;;;4928433;28;20039;-90
2023/08/15 00:04:04;;;;;;;4.70;2.28;;;14.50;99.90;;;;;;4928429;28;20068;-92
2023/08/15 00:06:30;;;;;;;4.10;2.10;;;14.50;99.90;;;;;;4918422;28;20456;-90
2023/08/15 00:08:56;;;;;;;7.47;2.10;;;14.50;99.90;;;;;;4909862;29;20090;-91
2023/08/15 00:11:22;;;;;;;5.10;1.80;;;14.50;99.90;;;;;;4909906;28;20389;-91
2023/08/15 00:13:48;;;;;;;4.70;1.73;;;14.50;99.90;;;;;;4900561;28;20063;-92
2023/08/15 00:16:14;;;;;;;5.40;2.25;;;14.50;99.90;;;;;;4904929;28;20480;-90
2023/08/15 00:18:40;;;;;;;9.48;2.13;;;14.50;99.90;;;;;;4900965;29;20035;-91
2023/08/15 00:21:05;;;;;;;4.00;1.83;;;14.50;99.90;;;;;;4982910;28;20056;-91
2023/08/15 00:23:31;;;;;;;5.90;2.13;;;14.50;99.90;;;;;;4895991;28;20037;-92
2023/08/15 00:25:57;;;;;;;6.80;1.98;;;14.50;99.90;;;;;;4895370;29;20051;-92
2023/08/15 00:28:22;;;;;;;9.07;2.70;;;14.50;99.90;;;;;;4894715;28;20140;-92
2023/08/15 00:30:49;;;;;;;4.88;2.20;;;14.50;99.90;;;;;;4894880;28;20029;-92
2023/08/15 00:33:15;;;;;;;9.55;2.67;;;14.50;99.90;;;;;;4894538;29;20032;-92
2023/08/15 00:35:42;;;;;;;5.03;2.33;;;14.50;99.90;;;;;;4894968;28;20036;-91
2023/08/15 00:38:08;;;;;;;9.10;2.80;;;14.50;99.90;;;;;;4976824;28;20044;-92
2023/08/15 00:40:34;;;;;;;8.70;2.67;;;14.50;99.90;;;;;;4894169;28;20029;-91
2023/08/15 00:42:59;;;;;;;7.82;2.40;;;14.50;99.90;;;;;;4910373;28;20043;-89
2023/08/15 00:45:26;;;;;;;6.00;2.00;;;14.50;99.90;;;;;;4901700;28;20032;-91
2023/08/15 00:47:52;;;;;;;7.75;2.10;;;14.50;99.90;;;;;;4896302;29;20063;-92
2023/08/15 00:50:17;;;;;;;9.50;2.55;;;14.50;99.90;;;;;;4912532;28;20044;-92
2023/08/15 00:52:43;;;;;;;9.18;2.47;;;14.50;99.90;;;;;;4896678;28;20079;-91
2023/08/15 00:55:09;;;;;;;8.27;2.10;;;14.50;99.90;;;;;;4897717;28;20123;-91
2023/08/15 00:57:36;;;;;;;7.22;2.78;;;14.50;99.90;;;;;;4915587;29;20024;-92
2023/08/15 01:00:01;;;;;;;5.78;2.35;;;14.50;99.90;;;;;;4979005;28;20392;-92
2023/08/15 01:02:28;;;;;;;9.10;2.42;;;14.50;99.90;;;;;;4912555;29;20020;-91
2023/08/15 01:04:54;;;;;;;5.50;2.42;;;14.50;99.90;;;;;;4912055;29;20055;-91
2023/08/15 01:07:19;;;;;;;7.35;2.40;;;14.50;99.90;;;;;;4913573;28;20036;-91
2023/08/15 01:09:45;;;;;;;5.80;2.20;;;14.50;99.90;;;;;;4915610;29;20041;-90
2023/08/15 01:12:30;;;;;;;13.18;2.55;;;14.50;99.90;;;;;;4912441;29;20029;-91
2023/08/15 01:15:05;;;;;;;8.20;2.28;;;14.50;99.90;;;;;;4978956;28;20119;-93
2023/08/15 01:17:45;;;;;;;10.00;3.03;;;14.40;99.90;;;;;;4897756;29;20087;-91
2023/08/15 01:20:28;;;;;;;7.93;2.45;;;14.40;99.90;;;;;;4911984;29;20029;-92
2023/08/15 01:23:00;;;;;;;7.10;2.55;;;14.40;99.90;;;;;;4912118;29;20040;-91
2023/08/15 01:25:26;;;;;;;7.07;2.33;;;14.50;99.90;;;;;;4911323;29;20028;-91
2023/08/15 01:27:52;;;;;;;8.50;2.40;;;14.40;99.90;;;;;;4911532;29;20526;-92
2023/08/15 01:30:22;;;;;;;5.65;2.38;;;14.50;99.90;;;;;;4896419;29;20037;-92
2023/08/15 01:33:09;;;;;;;6.93;3.08;;;14.50;99.90;;;;;;4978087;28;20404;-92
2023/08/15 01:35:42;;;;;;;6.18;2.40;;;14.50;99.90;;;;;;4911485;29;20033;-92
2023/08/15 01:38:25;;;;;;;6.25;2.33;;;14.50;99.90;;;;;;4911937;29;20447;-90
2023/08/15 01:40:54;;;;;;;7.05;3.67;;;14.50;99.90;;;;;;4911632;29;20036;-92
2023/08/15 01:43:22;;;;;;;6.78;2.70;;;14.50;99.90;;;;;;4911649;29;20115;-91
2023/08/15 01:45:48;;;;;;;7.15;2.67;;;14.40;99.90;;;;;;4911829;29;20055;-91
2023/08/15 01:48:15;;;;;;;3.70;2.67;;;14.50;99.90;;;;;;4978530;28;20472;-91
2023/08/15 01:50:40;;;;;;;11.68;3.33;;;14.50;99.90;;;;;;4911594;29;20041;-90
2023/08/15 01:53:06;;;;;;;13.13;3.70;;;14.50;99.90;;;;;;4911774;29;20396;-91
2023/08/15 01:55:32;;;;;;;9.57;2.90;;;14.50;99.90;;;;;;4911804;29;20032;-91
2023/08/15 01:57:57;;;;;;;6.63;2.60;;;14.40;99.90;;;;;;4912550;29;20033;-93
2023/08/15 02:00:23;;;;;;;8.45;2.92;;;14.40;99.90;;;;;;4916424;29;20024;-91
2023/08/15 02:02:48;;;;;;;10.65;3.20;;;14.40;99.90;;;;;;4901961;29;20369;-92
2023/08/15 02:05:14;;;;;;;7.85;2.90;;;14.40;99.90;;;;;;4989943;28;20139;-90
2023/08/15 02:07:40;;;;;;;5.13;3.00;;;14.50;99.90;;;;;;4916650;29;20032;-92
2023/08/15 02:10:06;;;;;;;10.88;3.38;;;14.50;99.90;;;;;;4911416;29;20122;-91
2023/08/15 02:12:32;;;;;;;10.05;3.20;;;14.50;99.90;;;;;;4912105;29;20056;-91
2023/08/15 02:14:57;;;;;;;10.25;3.08;;;14.50;99.90;;;;;;4914871;29;20083;-92
2023/08/15 02:17:23;;;;;;;7.18;2.80;;;14.50;99.90;;;;;;4914701;29;20025;-91
2023/08/15 02:19:49;;;;;;;10.52;3.10;;;14.50;99.90;;;;;;4978022;28;20083;-92
2023/08/15 02:22:14;;;;;;;7.50;3.33;;;14.50;99.90;;;;;;4895029;29;20039;-92
2023/08/15 02:24:40;;;;;;;8.35;3.20;;;14.50;99.90;;;;;;4911049;29;20044;-93
2023/08/15 02:27:06;;;;;;;10.48;2.92;;;14.50;99.90;;;;;;4895372;29;20041;-91
2023/08/15 02:29:32;;;;;;;9.65;2.88;;;14.40;99.90;;;;;;4911390;29;20032;-92
2023/08/15 02:31:57;;;;;;;7.22;2.67;;;14.50;99.90;;;;;;4910823;29;20397;-92
2023/08/15 02:34:23;;;;;;;7.72;3.03;;;14.40;99.90;;;;;;4910506;29;20028;-93
2023/08/15 02:36:49;;;;;;;4.55;2.75;;;14.40;99.90;;;;;;4977291;28;20036;-92
2023/08/15 02:39:17;;;;;;;11.98;2.80;;;14.40;99.90;;;;;;4910690;29;20032;-92
2023/08/15 02:41:43;;;;;;;5.18;2.70;;;14.40;99.90;;;;;;4977231;28;20087;-93
2023/08/15 02:44:09;;;;;;;8.32;2.97;;;14.30;99.90;;;;;;4910772;29;20037;-92
2023/08/15 02:46:35;;;;;;;6.00;2.90;;;14.30;99.90;;;;;;4910977;29;20040;-94
2023/08/15 02:49:01;;;;;;;6.75;3.60;;;14.30;99.90;;;;;;4911173;29;20085;-92
2023/08/15 02:51:26;;;;;;;8.20;2.92;;;14.20;99.90;;;;;;4910800;29;20032;-91
2023/08/15 02:53:52;;;;;;;6.55;2.92;;;14.20;99.90;;;;;;4895986;29;20391;-93
2023/08/15 02:56:17;;;;;;;8.52;4.45;;;14.20;99.90;;;;;;4910317;29;20037;-93
2023/08/15 02:58:43;;;;;;;9.48;2.92;;;14.20;99.90;;;;;;4910584;29;20448;-93
2023/08/15 03:01:09;;;;;;;6.72;3.40;;;14.20;99.90;;;;;;4910314;29;20031;-93
2023/08/15 03:03:35;;;;;;;6.53;3.45;;;14.20;99.90;;;;;;4910327;29;20060;-92
2023/08/15 03:06:02;;;;;;;6.68;3.50;;;14.10;99.90;;;;;;4909905;28;20032;-93
2023/08/15 03:08:28;;;;;;;6.90;3.60;;;14.10;99.90;;;;;;4910649;29;20086;-93
2023/08/15 03:10:54;;;;;;;10.30;4.07;;;14.10;99.90;;;;;;4977400;28;20171;-92
2023/08/15 03:13:20;;;;;;;7.43;3.33;;;14.10;99.90;;;;;;4915901;29;20072;-93
2023/08/15 03:15:52;;;;;;;8.98;3.70;;;14.10;99.90;;;;;;4912245;29;20024;-89
2023/08/15 03:18:19;;;;;;;8.95;4.45;;;14.20;99.90;;;;;;4910988;29;20060;-92
2023/08/15 03:20:53;;;;;;;9.68;3.67;;;14.20;99.90;;;;;;4917502;29;20025;-91
2023/08/15 03:23:19;;;;;;;6.63;4.18;;;14.20;99.90;;;;;;4921277;29;20104;-90
2023/08/15 03:25:52;;;;;;;8.05;4.07;;;14.20;99.90;;;;;;4986444;28;20033;-89
2023/08/15 03:28:18;;;;;;;6.88;4.03;;;14.20;99.90;;;;;;4915804;29;20052;-91
2023/08/15 03:30:43;;;;;;;9.75;3.83;;;14.30;99.90;;;;;;4913762;29;20031;-92
2023/08/15 03:33:09;;;;;;;6.68;3.55;;;14.30;99.90;;;;;;4978059;28;20040;-92
2023/08/15 03:35:34;;;;;;;8.60;3.78;;;14.30;99.90;;;;;;4910883;29;20025;-93
2023/08/15 03:38:00;;;;;;;9.48;4.07;;;14.30;99.90;;;;;;4911996;29;20033;-92
2023/08/15 03:40:26;;;;;;;6.28;3.58;;;14.30;99.90;;;;;;4911646;29;20115;-91
2023/08/15 03:42:51;;;;;;;7.75;3.72;;;14.30;99.90;;;;;;4910522;29;20028;-92
2023/08/15 03:45:17;;;;;;;7.05;3.92;;;14.30;99.90;;;;;;4910098;29;20058;-93
2023/08/15 03:47:42;;;;;;;5.53;2.97;;;14.30;99.90;;;;;;4976515;28;20029;-92
2023/08/15 03:50:08;;;;;;;8.90;3.83;;;14.30;99.90;;;;;;4910038;29;20037;-92
2023/08/15 03:52:35;;;;;;;9.70;5.05;;;14.30;99.90;;;;;;4909612;29;20039;-92
2023/08/15 03:55:02;;;;;;;9.27;4.47;;;14.30;99.90;;;;;;4895024;29;20128;-91
2023/08/15 03:57:27;;;;;;;8.00;4.82;;;14.30;99.90;;;;;;4909746;29;20056;-92
2023/08/15 03:59:53;;;;;;;12.55;5.25;;;14.30;99.90;;;;;;4909568;29;20071;-92
2023/08/15 04:02:19;;;;;;;12.25;5.20;;;14.40;99.90;;;;;;4975758;28;20041;-91
2023/08/15 04:04:44;;;;;;;9.98;5.35;;;14.40;99.90;;;;;;4908798;29;20044;-92
2023/08/15 04:07:10;;;;;;;9.20;5.63;;;14.40;99.90;;;;;;4908989;29;20512;-93
2023/08/15 04:09:35;;;;;;;7.90;5.32;;;14.40;99.90;;;;;;4909653;29;20029;-92
2023/08/15 04:12:01;;;;;;;8.23;4.05;;;14.40;99.90;;;;;;4909116;29;20032;-91
2023/08/15 04:14:27;;;;;;;7.95;4.57;;;14.40;99.90;;;;;;4908910;29;20025;-90
2023/08/15 04:16:53;;;;;;;12.50;5.07;;;14.40;99.90;;;;;;4976837;28;20056;-91
2023/08/15 04:19:18;;;;;;;11.77;5.22;;;14.50;99.90;;;;;;4913543;29;20032;-91
2023/08/15 04:21:44;;;;;;;6.95;4.90;;;14.50;99.90;;;;;;4912990;29;20031;-91
2023/08/15 04:24:10;;;;;;;6.82;4.40;;;14.50;99.90;;;;;;4912461;29;20041;-90
2023/08/15 04:26:35;;;;;;;7.45;4.95;;;14.50;99.90;;;;;;4897540;29;20033;-91
2023/08/15 04:29:01;;;;;;;9.88;4.50;;;14.50;99.90;;;;;;4912113;29;20083;-90
2023/08/15 04:31:26;;;;;;;13.52;5.45;;;14.50;99.90;;;;;;4912170;29;20048;-91
2023/08/15 04:33:52;;;;;;;11.07;5.53;;;14.50;99.90;;;;;;4978878;28;20091;-90
2023/08/15 04:36:17;;;;;;;11.45;6.30;;;14.50;99.90;;;;;;4912455;29;20543;-92
2023/08/15 04:38:43;;;;;;;8.85;4.93;;;14.50;99.90;;;;;;4898400;29;20029;-91
2023/08/15 04:41:09;;;;;;;10.73;5.55;;;14.50;99.90;;;;;;4913753;29;20079;-91
2023/08/15 04:43:34;;;;;;;6.53;4.22;;;14.50;99.90;;;;;;4911987;29;20391;-91
2023/08/15 04:46:00;;;;;;;8.52;4.75;;;14.40;99.90;;;;;;4912717;29;20496;-91
2023/08/15 04:48:26;;;;;;;12.02;4.80;;;14.40;99.90;;;;;;4914033;29;20028;-92
2023/08/15 04:50:52;;;;;;;6.45;4.38;;;14.40;99.90;;;;;;4898084;29;20040;-92
2023/08/15 04:53:17;;;;;;;6.82;4.10;;;14.30;99.90;;;;;;4912416;29;20122;-92
2023/08/15 04:55:43;;;;;;;9.27;4.03;;;14.30;99.90;;;;;;4912254;29;20128;-91
2023/08/15 04:58:09;;;;;;;6.72;4.10;;;14.30;99.90;;;;;;4897359;29;20552;-92
2023/08/15 05:00:35;;;;;;;9.73;3.90;;;14.30;99.90;;;;;;4912184;29;20055;-91
2023/08/15 05:03:01;;;;;;;8.88;4.20;;;14.20;99.90;;;;;;4912153;29;20032;-91
2023/08/15 05:05:27;;;;;;;8.68;4.30;;;14.20;99.90;;;;;;4978908;28;20526;-90
2023/08/15 05:07:52;;;;;;;7.22;3.78;;;14.10;99.90;;;;;;4978950;28;20033;-92
2023/08/15 05:10:18;;;;;;;5.97;3.30;;;14.10;99.90;;;;;;4912212;29;20036;-90
2023/08/15 05:12:44;;;;;;;11.27;3.50;;;14.10;99.90;;;;;;4897526;29;20395;-92
2023/08/15 05:15:10;;;;;;;6.00;3.17;;;14.10;99.90;;;;;;4912145;29;20075;-92
2023/08/15 05:17:36;;;;;;;5.95;3.55;;;14.10;99.90;;;;;;4901178;29;20032;-91
2023/08/15 05:20:03;;;;;;;4.43;2.88;;;14.00;99.90;;;;;;4915273;29;20083;-91
2023/08/15 05:22:29;;;;;;;4.93;3.47;;;14.00;99.90;;;;;;4911641;29;20033;-92
2023/08/15 05:24:54;;;;;;;4.80;3.28;;;14.00;99.90;;;;;;4911520;29;20089;-92
2023/08/15 05:27:20;;;;;;;4.32;2.90;;;13.90;99.90;;;;;;4911479;29;20404;-89
2023/08/15 05:29:45;;;;;;;6.30;3.35;;;13.90;99.90;;;;;;4896332;29;20080;-90
2023/08/15 05:32:11;;;;;;;5.53;3.40;;;14.00;99.90;;;;;;4911830;29;20040;-92
2023/08/15 05:34:37;;;;;;;5.82;3.40;;;13.90;99.90;;;;;;4911506;29;20476;-91
2023/08/15 05:37:02;;;;;;;7.00;3.67;;;13.90;99.90;;;;;;4911719;29;20028;-91
2023/08/15 05:39:28;;;;;;;7.15;3.63;;;14.00;99.90;;;;;;4912215;29;20079;-91
2023/08/15 05:41:53;;;;;;;7.47;3.45;;;14.00;99.90;;;;;;4985660;28;20043;-92
2023/08/15 05:44:19;;;;;;;4.80;3.15;;;14.00;99.90;;;;;;4920325;29;20131;-91
2023/08/15 05:46:45;;;;;;;6.95;2.85;;;14.00;99.90;;;;;;4913303;29;20026;-92
2023/08/15 05:49:10;;;;;;;6.45;3.10;;;14.00;99.90;;;;;;4913055;29;20033;-92
2023/08/15 05:51:36;;;;;;;12.77;4.43;;;14.00;99.90;;;;;;4912074;29;20493;-90
2023/08/15 05:54:02;;;;;;;6.22;2.90;;;14.00;99.90;;;;;;4911920;29;20032;-92
2023/08/15 05:56:27;;;;;;;5.32;3.30;;;14.00;99.90;;;;;;4978232;28;20064;-92
2023/08/15 05:58:53;;;;;;;6.63;3.90;;;14.00;99.90;;;;;;4914432;29;20179;-92
2023/08/15 06:01:21;;;;;;;5.63;3.92;;;14.00;99.90;;;;;;4929921;28;20028;-92
2023/08/15 06:03:47;;;;;;;6.25;3.85;;;14.10;99.90;;;;;;4930641;28;20118;-91
2023/08/15 06:06:13;;;;;;;4.65;3.30;;;14.00;99.90;;;;;;4930768;28;20464;-90
2023/08/15 06:08:38;;;;;;;7.53;3.33;;;14.10;99.90;;;;;;4915513;28;20025;-91
2023/08/15 06:11:05;;;;;;;9.55;4.20;;;14.10;99.90;;;;;;4930421;28;20044;-91
2023/08/15 06:13:30;;;;;;;6.68;4.68;;;14.10;99.90;;;;;;4997584;28;20035;-92
2023/08/15 06:15:56;;;;;;;5.13;3.50;;;14.10;99.90;;;;;;4929972;28;20475;-92
2023/08/15 06:18:22;;;;;;;9.50;3.85;;;14.20;99.90;;;;;;4929920;28;20062;-91
2023/08/15 06:20:49;;;;;;;9.43;3.95;;;14.30;99.90;;;;;;4917406;28;20206;-92
2023/08/15 06:23:14;;;;;;;6.90;3.58;;;14.40;99.90;;;;;;4930139;28;20448;-91
2023/08/15 06:25:40;;;;;;;6.03;3.63;;;14.60;99.90;;;;;;4930903;28;20040;-89
2023/08/15 06:28:08;;;;;;;7.13;3.13;;;14.70;99.90;;;;;;4928529;28;20055;-90
2023/08/15 06:30:33;;;;;;;6.63;3.10;;;14.80;99.90;;;;;;4923374;29;20074;-90
2023/08/15 06:32:59;;;;;;;4.70;3.40;;;14.90;99.90;;;;;;4926320;28;20096;-89
2023/08/15 06:35:28;;;;;;;6.43;3.85;;;15.00;99.90;;;;;;4903802;29;20059;-90
2023/08/15 06:37:54;;;;;;;3.97;3.50;;;15.10;99.90;;;;;;4917081;29;20029;-90
2023/08/15 06:40:20;;;;;;;4.68;3.33;;;15.20;99.90;;;;;;4913979;28;20032;-89
2023/08/15 06:42:45;;;;;;;6.18;3.63;;;15.30;99.90;;;;;;4898224;29;20029;-93
2023/08/15 06:45:11;;;;;;;7.63;3.33;;;15.30;99.90;;;;;;4896837;28;20036;-92
2023/08/15 06:47:37;;;;;;;9.40;3.75;;;15.40;99.90;;;;;;4890797;29;20039;-92
2023/08/15 06:50:06;;;;;;;5.03;3.35;;;15.40;99.90;;;;;;4878143;29;20053;-92
2023/08/15 06:52:31;;;;;;;8.82;3.97;;;15.50;99.90;;;;;;4892139;29;20028;-92
2023/08/15 06:54:57;;;;;;;5.93;3.63;;;15.50;99.90;;;;;;4915522;28;20387;-93
2023/08/15 06:57:23;;;;;;;4.10;3.20;;;15.50;99.90;;;;;;4914909;28;20024;-93
2023/08/15 06:59:48;;;;;;;3.67;3.35;;;15.50;99.90;;;;;;4929303;28;20055;-91
2023/08/15 07:02:14;;;;;;;9.07;4.07;;;15.50;99.90;;;;;;4929278;28;20032;-91
2023/08/15 07:04:40;;;;;;;5.28;3.63;;;15.50;99.90;;;;;;4929406;29;20043;-93
2023/08/15 07:07:09;;;;;;;7.07;3.60;;;15.50;99.90;;;;;;4929108;28;20082;-93
2023/08/15 07:09:35;;;;;;;11.30;3.88;;;15.50;99.90;;;;;;4929110;28;20036;-93
2023/08/15 07:12:05;;;;;;;6.45;3.70;;;15.50;99.90;;;;;;4929446;28;20475;-92
2023/08/15 07:14:32;;;;;;;7.00;4.63;;;15.50;99.90;;;;;;4929725;29;20038;-93
2023/08/15 07:16:57;;;;;;;8.05;3.40;;;15.50;99.90;;;;;;4930249;28;20491;-93
2023/08/15 07:19:23;;;;;;;4.45;3.38;;;15.50;99.90;;;;;;4929138;28;20075;-91
2023/08/15 07:21:49;;;;;;;8.98;3.55;;;15.40;99.90;;;;;;4931913;28;20372;-93
2023/08/15 07:24:17;;;;;;;9.07;4.28;;;15.40;99.90;;;;;;4933689;28;20040;-92
2023/08/15 07:26:43;;;;;;;7.07;3.90;;;15.40;99.90;;;;;;4928880;28;20028;-93
2023/08/15 07:29:08;;;;;;;5.55;3.50;;;15.30;99.90;;;;;;4928671;28;20247;-93
2023/08/15 07:31:34;;;;;;;12.13;4.20;;;15.30;99.90;;;;;;4908725;28;20647;-93
2023/08/15 07:34:00;;;;;;;7.90;3.60;;;15.30;99.90;;;;;;4893799;28;20508;-93
2023/08/15 07:36:25;;;;;;;5.80;3.50;;;15.30;99.90;;;;;;4876895;29;20025;-92
2023/08/15 07:38:51;;;;;;;9.25;3.40;;;15.20;99.90;;;;;;4909463;29;20032;-93
2023/08/15 07:41:16;;;;;;;7.15;3.33;;;15.20;99.90;;;;;;4896571;29;20024;-93
2023/08/15 07:43:42;;;;;;;4.32;3.15;;;15.20;99.90;;;;;;4893752;29;20050;-92
2023/08/15 07:46:08;;;;;;;4.22;3.20;;;15.20;99.90;;;;;;4894219;29;20056;-93
2023/08/15 07:48:33;;;;;;;4.95;3.40;;;15.30;99.90;;;;;;4975386;28;20029;-93
2023/08/15 07:50:59;;;;;;;5.22;3.10;;;15.40;99.90;;;;;;4906919;28;20029;-94
2023/08/15 07:53:25;;;;;;;3.88;2.75;;;15.50;99.90;;;;;;4892928;28;20033;-93
2023/08/15 07:55:51;;;;;;;2.45;2.25;;;15.50;99.90;;;;;;4893980;28;20413;-93
2023/08/15 07:58:16;;;;;;;4.03;2.60;;;15.60;99.90;;;;;;4893966;28;20057;-92
2023/08/15 08:00:42;;;;;;;5.15;2.58;;;15.70;99.90;;;;;;4895970;28;20131;-93
2023/08/15 08:03:08;;;;;;;5.38;2.65;;;15.80;99.90;;;;;;4900754;28;20262;-92
2023/08/15 08:05:35;;;;;;;5.32;2.50;;;15.80;99.90;;;;;;4912577;28;20119;-94
2023/08/15 08:08:01;;;;;;;4.30;2.10;;;15.90;99.90;;;;;;4910105;29;20048;-93
2023/08/15 08:10:27;;;;;;;6.63;2.08;;;16.00;99.90;;;;;;4899021;28;20032;-91
2023/08/15 08:12:53;;;;;;;3.30;2.08;;;16.10;99.90;;;;;;4921032;28;20025;-93
2023/08/15 08:15:23;;;;;;;3.63;2.28;;;16.20;99.90;;;;;;4894858;29;20490;-94
2023/08/15 08:17:49;;;;;;;4.60;2.50;;;16.30;99.90;;;;;;4914902;29;20095;-92
2023/08/15 08:20:17;;;;;;;4.35;2.65;;;16.40;99.90;;;;;;4979235;28;20040;-95
2023/08/15 08:22:43;;;;;;;7.53;2.33;;;16.50;99.90;;;;;;4898399;29;20025;-93
2023/08/15 08:25:24;;;;;;;7.07;2.20;;;16.60;99.90;;;;;;4915866;29;20045;-95
2023/08/15 08:27:56;;;;;;;2.70;2.00;;;16.70;99.90;;;;;;4907304;28;20518;-96
2023/08/15 08:30:23;;;;;;;5.88;1.67;;;16.80;99.90;;;;;;4913807;28;20024;-94
2023/08/15 08:32:50;;;;;;;2.65;1.80;;;16.80;99.90;;;;;;4906814;29;20036;-92
2023/08/15 08:35:16;;;;;;;2.63;1.77;;;16.90;99.90;;;;;;4912427;29;20029;-92
2023/08/15 08:37:43;;;;;;;3.58;1.67;;;17.00;99.90;;;;;;4894672;29;20039;-94
2023/08/15 08:40:10;;;;;;;3.05;1.65;;;17.10;99.90;;;;;;4912859;28;20037;-93
2023/08/15 08:42:36;;;;;;;2.45;1.20;;;17.10;99.90;;;;;;4899064;29;20033;-92
2023/08/15 08:45:02;;;;;;;2.08;1.25;;;17.20;99.90;;;;;;4912702;29;20381;-92
2023/08/15 08:47:31;;;;;;;4.80;1.30;;;17.30;99.90;;;;;;4914458;29;20029;-92
2023/08/15 08:49:59;;;;;;;5.05;1.38;;;17.40;99.90;;;;;;4912581;29;20032;-92
2023/08/15 08:52:27;;;;;;;3.70;1.40;;;17.60;99.90;;;;;;4888151;29;20072;-92
2023/08/15 08:54:53;;;;;;;2.75;0.98;;;17.70;99.90;;;;;;4959061;28;20033;-93
2023/08/15 08:57:20;;;;;;;3.97;1.20;;;17.80;99.90;;;;;;4906066;29;20043;-92
2023/08/15 08:59:45;;;;;;;1.75;1.10;;;17.90;99.90;;;;;;4912711;29;20089;-91
2023/08/15 09:02:22;;;;;;;1.63;1.10;;;18.00;99.90;;;;;;4905260;29;20064;-94
2023/08/15 09:04:48;;;;;;;3.75;1.05;;;18.00;99.90;;;;;;4915071;28;20111;-95
2023/08/15 09:07:17;;;;;;;3.47;1.10;;;18.10;99.90;;;;;;4917934;28;20020;-96
2023/08/15 09:09:43;;;;;;;3.92;1.00;;;18.00;99.90;;;;;;4901747;29;20028;-94
2023/08/15 09:12:08;;;;;;;2.67;0.80;;;18.00;99.90;;;;;;4919402;28;20099;-93
2023/08/15 09:14:40;;;;;;;3.00;1.00;;;18.10;99.90;;;;;;4905755;28;20029;-94
2023/08/15 09:17:06;;;;;;;3.95;0.80;;;18.10;99.90;;;;;;4906852;28;20091;-94
2023/08/15 09:19:40;;;;;;;3.13;1.05;;;18.20;99.90;;;;;;4919184;28;20071;-94
2023/08/15 09:22:06;;;;;;;2.63;1.00;;;18.30;99.90;;;;;;4982715;28;20028;-94
2023/08/15 09:24:32;;;;;;;2.58;1.05;;;18.30;99.90;;;;;;4922176;28;20043;-92
2023/08/15 09:27:05;;;;;;;2.53;1.30;;;18.50;99.90;;;;;;4910877;29;20412;-95
2023/08/15 09:29:34;;;;;;;4.03;1.00;;;18.60;99.90;;;;;;4904367;28;20037;-96
2023/08/15 09:31:59;;;;;;;3.15;1.25;;;18.70;99.90;;;;;;4903858;29;20032;-96
2023/08/15 09:34:25;;;;;;;2.65;1.10;;;18.80;99.90;;;;;;4916632;28;20039;-96
2023/08/15 09:36:51;;;;;;;4.20;1.33;;;18.90;99.90;;;;;;4901940;28;20032;-94
2023/08/15 09:39:20;;;;;;;2.30;1.30;;;19.00;99.90;;;;;;4916781;29;20029;-96
2023/08/15 09:41:48;;;;;;;3.28;1.05;;;19.10;99.90;;;;;;4921729;29;20029;-95
2023/08/15 09:44:30;;;;;;;2.55;1.20;;;19.20;99.90;;;;;;4929011;29;20044;-96
2023/08/15 09:46:56;;;;;;;2.15;1.15;;;19.20;99.90;;;;;;4925004;28;20024;-96
2023/08/15 09:49:22;;;;;;;5.63;1.40;;;19.30;99.90;;;;;;4913866;29;20047;-95
2023/08/15 09:51:48;;;;;;;3.92;1.08;;;19.50;99.90;;;;;;4926643;29;20033;-95
2023/08/15 09:54:18;;;;;;;7.93;1.30;;;19.50;99.90;;;;;;4927445;28;20039;-96
2023/08/15 09:56:45;;;;;;;2.90;0.90;;;19.70;99.90;;;;;;4922837;29;20089;-96
2023/08/15 09:59:11;;;;;;;1.90;1.02;;;19.90;99.90;;;;;;4924877;29;20036;-96
2023/08/15 10:01:38;;;;;;;2.50;1.33;;;19.90;99.90;;;;;;4920678;28;20059;-96
2023/08/15 10:04:10;;;;;;;2.10;1.20;;;20.00;99.90;;;;;;4921904;29;20060;-95
2023/08/15 10:06:37;;;;;;;3.65;1.20;;;20.20;99.90;;;;;;4925131;28;20027;-95
2023/08/15 10:09:04;;;;;;;2.40;0.93;;;20.20;99.90;;;;;;4935446;29;20032;-95
2023/08/15 10:11:36;;;;;;;3.22;0.93;;;20.40;99.90;;;;;;4923530;29;20206;-94
2023/08/15 10:14:02;;;;;;;3.50;0.88;;;20.40;99.90;;;;;;4923486;29;20120;-95
2023/08/15 10:16:29;;;;;;;3.65;0.88;;;20.50;99.90;;;;;;4924596;29;20032;-94
2023/08/15 10:18:57;;;;;;;2.95;0.90;;;20.50;99.90;;;;;;4927341;28;20037;-95
2023/08/15 10:21:27;;;;;;;2.22;0.82;;;20.60;99.90;;;;;;4996942;28;20037;-95
2023/08/15 10:23:54;;;;;;;3.67;0.90;;;20.70;99.90;;;;;;4915965;28;20043;-95
2023/08/15 10:26:20;;;;;;;3.13;1.10;;;20.80;99.90;;;;;;4917563;28;20075;-96
2023/08/15 10:28:47;;;;;;;2.80;1.00;;;20.90;99.90;;;;;;4914891;29;20111;-95
2023/08/15 10:31:13;;;;;;;1.70;1.00;;;20.80;99.50;;;;;;4909808;29;20013;-95
2023/08/15 10:33:41;;;;;;;1.98;1.00;;;20.80;98.80;;;;;;4910785;28;20067;-95
2023/08/15 10:36:10;;;;;;;3.33;0.90;;;20.90;98.60;;;;;;4930325;28;20064;-96
2023/08/15 10:38:41;;;;;;;5.63;1.15;;;20.90;98.30;;;;;;4912696;28;20051;-93
2023/08/15 10:41:15;;;;;;;2.85;1.13;;;21.00;97.60;;;;;;4924292;29;20048;-95
2023/08/15 10:43:59;;;;;;;4.22;1.08;;;21.10;97.20;;;;;;4925837;29;20064;-94
2023/08/15 10:46:30;;;;;;;1.88;0.80;;;21.20;96.90;;;;;;4930440;29;20059;-96
2023/08/15 10:49:05;;;;;;;4.18;1.00;;;21.30;96.80;;;;;;4930100;29;20025;-96
2023/08/15 10:51:36;;;;;;;3.42;1.00;;;21.30;96.40;;;;;;4913929;29;20043;-96
2023/08/15 10:54:06;;;;;;;1.92;1.02;;;21.20;95.70;;;;;;4929844;29;20021;-94
2023/08/15 10:56:33;;;;;;;2.35;0.90;;;21.10;95.40;;;;;;4933791;28;20030;-92
2023/08/15 10:59:07;;;;;;;4.47;1.13;;;21.00;95.50;;;;;;4934318;29;20025;-93
2023/08/15 11:01:33;;;;;;;4.40;1.10;;;21.00;95.60;;;;;;4930795;28;20041;-96
2023/08/15 11:04:01;;;;;;;2.53;1.23;;;21.20;95.90;;;;;;4916889;29;20029;-95
2023/08/15 11:06:29;;;;;;;2.88;0.95;;;21.40;95.80;;;;;;4935555;28;20091;-93
2023/08/15 11:08:58;;;;;;;3.20;1.15;;;21.60;95.60;;;;;;4972765;28;20044;-92
2023/08/15 11:11:24;;;;;;;1.35;0.77;;;21.80;95.10;;;;;;4896574;28;20029;-90
2023/08/15 11:13:52;;;;;;;1.63;0.70;;;21.90;94.10;;;;;;4913548;28;20025;-90
2023/08/15 11:16:21;;;;;;;1.67;0.68;;;22.00;92.70;;;;;;4910420;28;20119;-91
2023/08/15 11:18:48;;;;;;;1.92;1.13;;;22.00;92.00;;;;;;4894355;29;20027;-90
2023/08/15 11:21:16;;;;;;;3.03;1.05;;;22.00;92.40;;;;;;4908554;29;20484;-90
2023/08/15 11:23:42;;;;;;;2.97;0.90;;;22.00;92.00;;;;;;4908811;29;20040;-91
2023/08/15 11:26:10;;;;;;;1.60;1.10;;;22.00;91.90;;;;;;4909321;29;20029;-92
2023/08/15 11:28:36;;;;;;;1.55;0.68;;;22.00;91.20;;;;;;4895919;29;20075;-91
2023/08/15 11:31:07;;;;;;;1.90;1.02;;;21.80;90.50;;;;;;4915942;29;20028;-91
2023/08/15 11:33:32;;;;;;;1.98;0.68;;;21.60;90.10;;;;;;4910973;29;20032;-93
2023/08/15 11:35:59;;;;;;;2.92;0.60;;;21.40;90.10;;;;;;4910495;29;20037;-91
2023/08/15 11:38:28;;;;;;;1.70;0.73;;;21.40;90.30;;;;;;4910718;29;20107;-91
2023/08/15 11:40:55;;;;;;;2.63;0.80;;;21.40;90.50;;;;;;4896005;29;20115;-92
2023/08/15 11:43:21;;;;;;;2.63;0.80;;;21.40;90.80;;;;;;4910467;29;20035;-90
2023/08/15 11:45:46;;;;;;;2.42;0.82;;;21.60;91.30;;;;;;4910464;29;20037;-91
2023/08/15 11:48:12;;;;;;;2.15;0.70;;;21.80;91.50;;;;;;4895803;29;20551;-91
2023/08/15 11:50:40;;;;;;;2.90;0.90;;;21.90;91.40;;;;;;4895866;29;20037;-92
2023/08/15 11:53:11;;;;;;;1.17;0.60;;;22.00;91.20;;;;;;4910676;29;20028;-90
2023/08/15 11:55:39;;;;;;;2.45;0.90;;;22.00;91.10;;;;;;4910157;29;20041;-92
2023/08/15 11:58:20;;;;;;;7.07;1.27;;;21.90;91.10;;;;;;4909557;29;20040;-91
2023/08/15 12:00:46;;;;;;;2.30;1.00;;;22.10;91.50;;;;;;4910768;29;20036;-92
2023/08/15 12:03:12;;;;;;;3.10;1.23;;;22.20;91.40;;;;;;4895200;29;20028;-92
2023/08/15 12:05:38;;;;;;;3.17;1.00;;;22.30;91.10;;;;;;4910405;29;20464;-91
2023/08/15 12:08:04;;;;;;;3.55;1.23;;;22.50;90.80;;;;;;4898101;29;20124;-91
2023/08/15 12:10:30;;;;;;;1.50;0.70;;;22.50;90.40;;;;;;4909109;29;20068;-90
2023/08/15 12:12:56;;;;;;;4.80;0.60;;;22.50;90.10;;;;;;4896752;29;20060;-92
2023/08/15 12:15:22;;;;;;;3.08;0.70;;;22.60;89.90;;;;;;4891201;29;20029;-91
2023/08/15 12:17:47;;;;;;;0.60;0.55;;;22.80;89.00;;;;;;4876532;29;20065;-91
2023/08/15 12:20:14;;;;;;;2.38;0.80;;;23.20;89.00;;;;;;4890900;29;20103;-92
2023/08/15 12:22:41;;;;;;;3.53;0.70;;;23.50;85.90;;;;;;4887179;29;20083;-91
2023/08/15 12:25:08;;;;;;;1.90;0.70;;;23.80;84.80;;;;;;4894659;29;20043;-91
2023/08/15 12:27:37;;;;;;;2.45;0.60;;;24.00;82.80;;;;;;4894605;29;20052;-92
2023/08/15 12:30:04;;;;;;;1.93;1.20;;;24.10;81.50;;;;;;4895094;29;20033;-92
2023/08/15 12:32:30;;;;;;;1.65;0.70;;;23.90;79.90;;;;;;4909182;29;20033;-91
2023/08/15 12:34:56;;;;;;;1.98;0.73;;;23.70;80.20;;;;;;4894842;29;20027;-92
2023/08/15 12:37:22;;;;;;;2.80;0.98;;;23.70;81.00;;;;;;4976733;28;20029;-92
2023/08/15 12:39:48;;;;;;;3.00;0.60;;;23.70;80.80;;;;;;4912924;29;20059;-90
2023/08/15 12:42:14;;;;;;;3.78;0.70;;;23.80;80.70;;;;;;4912794;29;20032;-92
2023/08/15 12:44:41;;;;;;;2.67;1.05;;;24.00;80.00;;;;;;4912330;29;20076;-91